Terminal Aerodrome Forecast
Issued by NWS Sterling, VA

Current Version | Previous Version | Text Only | Print | Product List | Glossary Off
Versions: 1 2 3 4 5 6 7 8 9 10 11 12 13 14 15 16 17 18 19

223
FTUS41 KLWX 051736
TAFMRB
TAF
KMRB 051736Z 0518/0618 30008KT P6SM SCT040
     FM051900 30008KT P6SM SCT250
     FM052200 31004KT P6SM SCT250
     FM061200 VRB03KT P6SM OVC120
     FM061500 11005KT 5SM -RA OVC080=

USA.gov is the U.S. government's official web portal to all federal, state and local government web resources and services.